createdAt,value
2023-01-30T00:01:44.150Z,20.48
2023-01-30T00:04:12.493Z,18.67
2023-01-30T00:06:40.857Z,17.45
2023-01-30T00:09:10.047Z,18.98
2023-01-30T00:11:36.829Z,18.00
2023-01-30T00:14:03.612Z,18.70
2023-01-30T00:16:30.466Z,18.92
2023-01-30T00:18:57.248Z,18.13
2023-01-30T00:21:24.018Z,17.75
2023-01-30T00:23:50.793Z,17.27
2023-01-30T00:26:17.602Z,19.35
2023-01-30T00:28:44.366Z,17.35
2023-01-30T00:31:11.183Z,18.13
2023-01-30T00:33:39.605Z,17.70
2023-01-30T00:36:07.040Z,19.15
2023-01-30T00:38:34.051Z,18.63
2023-01-30T00:41:01.024Z,18.83
2023-01-30T00:43:46.114Z,18.52
2023-01-30T00:46:53.943Z,19.88
2023-01-30T00:49:20.891Z,20.70
2023-01-30T00:51:47.689Z,20.73
2023-01-30T00:54:14.612Z,19.55
2023-01-30T00:56:41.472Z,20.52
2023-01-30T00:59:08.259Z,21.05
2023-01-30T01:01:35.072Z,20.27
2023-01-30T01:04:01.994Z,21.73
2023-01-30T01:06:28.800Z,21.02
2023-01-30T01:08:55.639Z,22.25
2023-01-30T01:11:25.136Z,21.63
2023-01-30T01:13:54.450Z,22.70
2023-01-30T01:16:22.445Z,21.88
2023-01-30T01:18:49.863Z,21.40
2023-01-30T01:21:20.212Z,22.85
2023-01-30T01:23:58.317Z,22.67
2023-01-30T01:26:25.600Z,22.17
2023-01-30T01:28:57.364Z,23.73
2023-01-30T01:31:25.512Z,24.52
2023-01-30T01:33:52.515Z,22.98
2023-01-30T01:36:42.499Z,23.33
2023-01-30T01:39:06.110Z,22.08
2023-01-30T01:41:32.902Z,21.98
2023-01-30T01:44:03.006Z,21.30
2023-01-30T01:46:36.519Z,20.58
2023-01-30T01:49:08.303Z,22.35
2023-01-30T01:52:00.159Z,22.08
2023-01-30T01:54:40.302Z,21.50
2023-01-30T01:57:14.346Z,21.63
2023-01-30T01:59:49.504Z,20.42
2023-01-30T02:02:17.084Z,21.77
2023-01-30T02:05:03.622Z,21.80
2023-01-30T02:08:02.546Z,20.33
2023-01-30T02:10:45.987Z,20.40
2023-01-30T02:13:12.796Z,18.80
2023-01-30T02:15:40.121Z,19.67
2023-01-30T02:18:07.240Z,19.40
2023-01-30T02:21:46.348Z,18.52
2023-01-30T02:24:53.894Z,17.13
2023-01-30T02:27:43.186Z,18.38
2023-01-30T02:31:00.988Z,18.80
2023-01-30T02:34:01.296Z,18.08
2023-01-30T02:36:47.981Z,17.73
2023-01-30T02:39:48.922Z,19.13
2023-01-30T02:42:42.618Z,17.33
2023-01-30T02:45:36.952Z,18.77
2023-01-30T02:48:06.838Z,18.35
2023-01-30T02:50:49.448Z,19.65
2023-01-30T02:53:16.223Z,20.50
2023-01-30T02:55:43.179Z,20.42
2023-01-30T02:58:11.134Z,20.95
2023-01-30T03:01:20.998Z,20.52
2023-01-30T03:04:08.572Z,19.27
2023-01-30T03:07:19.618Z,19.40
2023-01-30T03:10:05.403Z,20.38
2023-01-30T03:13:11.802Z,20.77
2023-01-30T03:16:12.889Z,20.45
2023-01-30T03:18:44.995Z,20.33
2023-01-30T03:21:12.402Z,21.05
2023-01-30T03:23:39.147Z,19.65
2023-01-30T03:26:14.957Z,20.90
2023-01-30T03:28:41.998Z,20.95
2023-01-30T03:31:09.799Z,21.42
2023-01-30T03:33:36.686Z,20.38
2023-01-30T03:36:03.655Z,20.85
2023-01-30T03:38:30.501Z,21.42
2023-01-30T03:40:57.296Z,21.67
2023-01-30T03:43:24.047Z,20.20
2023-01-30T03:45:50.842Z,20.23
2023-01-30T03:48:17.612Z,20.20
2023-01-30T03:50:44.588Z,19.42
2023-01-30T03:53:11.350Z,18.60
2023-01-30T03:55:39.121Z,19.83
2023-01-30T03:58:06.083Z,18.95
2023-01-30T04:00:32.900Z,19.60
2023-01-30T04:02:59.669Z,18.90
2023-01-30T04:05:26.432Z,19.77
2023-01-30T04:07:57.812Z,20.20
2023-01-30T04:10:25.359Z,18.92
2023-01-30T04:12:52.187Z,18.05
2023-01-30T04:15:19.246Z,18.00
2023-01-30T04:17:47.726Z,17.90
2023-01-30T04:20:14.498Z,17.27
2023-01-30T04:22:41.321Z,18.48
2023-01-30T04:25:08.738Z,16.77
2023-01-30T04:27:35.553Z,15.77
2023-01-30T04:30:02.330Z,15.52
2023-01-30T04:32:29.113Z,15.00
2023-01-30T04:34:55.903Z,14.00
2023-01-30T04:37:22.770Z,15.02
2023-01-30T04:39:49.531Z,13.95
2023-01-30T04:42:16.291Z,13.52
2023-01-30T04:44:43.031Z,12.55
2023-01-30T04:47:09.825Z,12.60
2023-01-30T04:49:36.575Z,12.40
2023-01-30T04:52:03.459Z,11.73
2023-01-30T04:54:30.238Z,11.68
2023-01-30T04:56:57.661Z,10.85
2023-01-30T04:59:24.474Z,10.77
2023-01-30T05:01:51.358Z,11.02
2023-01-30T05:04:18.144Z,9.95
2023-01-30T05:06:44.901Z,9.55
2023-01-30T05:09:11.682Z,9.27
2023-01-30T05:11:39.359Z,9.38
2023-01-30T05:14:06.287Z,9.85
2023-01-30T05:16:33.044Z,8.55
2023-01-30T05:18:59.806Z,8.98
2023-01-30T05:21:30.689Z,9.02
2023-01-30T05:23:57.841Z,8.85
2023-01-30T05:26:25.391Z,7.95
2023-01-30T05:28:55.263Z,8.45
2023-01-30T05:31:22.512Z,9.07
2023-01-30T05:33:51.912Z,8.23
2023-01-30T05:36:21.118Z,9.15
2023-01-30T05:38:47.938Z,8.90
2023-01-30T05:41:16.994Z,9.13
2023-01-30T05:43:44.417Z,8.68
2023-01-30T05:46:14.325Z,8.38
2023-01-30T05:48:41.126Z,8.82
2023-01-30T05:51:23.618Z,9.27
2023-01-30T05:53:50.937Z,9.38
2023-01-30T05:56:18.817Z,8.65
2023-01-30T05:58:52.345Z,9.27
2023-01-30T06:01:19.126Z,8.45
2023-01-30T06:03:46.068Z,8.85
2023-01-30T06:06:13.453Z,8.48
2023-01-30T06:08:40.324Z,8.55
2023-01-30T06:11:11.480Z,7.97
2023-01-30T06:13:39.100Z,8.75
2023-01-30T06:16:08.333Z,9.23
2023-01-30T06:18:35.615Z,9.30
2023-01-30T06:21:02.627Z,8.32
2023-01-30T06:23:29.468Z,8.30
2023-01-30T06:25:56.225Z,8.38
2023-01-30T06:28:25.078Z,8.23
2023-01-30T06:30:52.484Z,8.02
2023-01-30T06:33:19.933Z,7.13
2023-01-30T06:35:50.433Z,7.53
2023-01-30T06:38:17.753Z,7.00
2023-01-30T06:40:47.457Z,6.43
2023-01-30T06:43:14.808Z,6.32
2023-01-30T06:45:41.779Z,6.25
2023-01-30T06:48:09.121Z,5.75
2023-01-30T06:50:36.217Z,5.30
2023-01-30T06:53:06.108Z,5.07
2023-01-30T06:55:35.528Z,4.60
2023-01-30T06:58:14.315Z,5.50
2023-01-30T07:00:42.616Z,4.28
2023-01-30T07:03:14.748Z,4.90
2023-01-30T07:05:43.242Z,4.90
2023-01-30T07:08:10.525Z,4.40
2023-01-30T07:10:37.499Z,4.50
2023-01-30T07:13:04.996Z,4.78
2023-01-30T07:15:32.325Z,4.70
2023-01-30T07:17:59.981Z,4.22
2023-01-30T07:20:26.822Z,4.30
2023-01-30T07:22:55.978Z,4.07
2023-01-30T07:25:25.525Z,4.22
2023-01-30T07:27:55.513Z,4.32
2023-01-30T07:30:22.455Z,4.80
2023-01-30T07:32:54.546Z,4.07
2023-01-30T07:35:23.033Z,3.33
2023-01-30T07:37:51.018Z,3.85
2023-01-30T07:40:19.747Z,2.65
2023-01-30T07:43:08.073Z,3.53
2023-01-30T07:45:43.986Z,3.40
2023-01-30T07:48:13.198Z,3.47
2023-01-30T07:50:40.295Z,3.75
2023-01-30T07:53:10.571Z,3.45
2023-01-30T07:55:37.668Z,3.35
2023-01-30T07:58:04.724Z,3.20
2023-01-30T08:00:32.086Z,3.33
2023-01-30T08:02:59.147Z,3.20
2023-01-30T08:05:26.179Z,3.20
2023-01-30T08:07:56.079Z,3.13
2023-01-30T08:10:23.136Z,3.40
2023-01-30T08:12:52.957Z,2.95
2023-01-30T08:15:21.847Z,3.20
2023-01-30T08:17:56.692Z,2.47
2023-01-30T08:20:24.943Z,3.45
2023-01-30T08:22:52.386Z,3.00
2023-01-30T08:25:19.811Z,6.35
2023-01-30T08:27:46.557Z,3.83
2023-01-30T08:30:13.708Z,4.05
2023-01-30T08:32:40.521Z,3.05
2023-01-30T08:35:08.197Z,3.00
2023-01-30T08:37:34.966Z,3.10
2023-01-30T08:40:01.872Z,2.83
2023-01-30T08:42:28.695Z,2.97
2023-01-30T08:44:55.685Z,2.92
2023-01-30T08:47:22.493Z,3.70
2023-01-30T08:49:51.304Z,2.95
2023-01-30T08:52:18.459Z,3.05
2023-01-30T08:54:45.264Z,3.00
2023-01-30T08:57:14.091Z,3.03
2023-01-30T08:59:41.149Z,4.10
2023-01-30T09:02:12.908Z,2.70
2023-01-30T09:04:39.684Z,3.60
2023-01-30T09:07:06.465Z,4.03
2023-01-30T09:09:33.325Z,3.42
2023-01-30T09:12:00.227Z,4.43
2023-01-30T09:14:27.075Z,3.30
2023-01-30T09:17:12.843Z,3.67
2023-01-30T09:19:39.681Z,3.40
2023-01-30T09:22:09.669Z,3.50
2023-01-30T09:24:36.540Z,3.67
2023-01-30T09:27:03.398Z,2.92
2023-01-30T09:29:30.409Z,3.50
2023-01-30T09:31:57.223Z,4.20
2023-01-30T09:34:28.617Z,3.42
2023-01-30T09:37:04.778Z,3.38
2023-01-30T09:39:32.179Z,3.05
2023-01-30T09:42:05.072Z,4.70
2023-01-30T09:45:38.011Z,4.15
2023-01-30T09:48:25.813Z,3.30
2023-01-30T09:51:19.320Z,3.92
2023-01-30T09:53:56.905Z,3.70
2023-01-30T09:56:24.201Z,4.38
2023-01-30T09:58:57.639Z,3.33
2023-01-30T10:01:48.748Z,3.72
2023-01-30T10:04:27.292Z,2.65
2023-01-30T10:07:26.956Z,3.58
2023-01-30T10:10:36.694Z,3.60
2023-01-30T10:13:27.414Z,2.88
2023-01-30T10:16:36.193Z,3.83
2023-01-30T10:19:36.047Z,2.80
2023-01-30T10:22:35.727Z,3.40
2023-01-30T10:25:19.379Z,3.53
2023-01-30T10:28:03.975Z,3.60
2023-01-30T10:33:22.706Z,3.53
2023-01-30T10:36:04.355Z,3.33
2023-01-30T10:38:49.868Z,3.70
2023-01-30T10:41:24.971Z,3.38
2023-01-30T10:44:11.057Z,3.38
2023-01-30T10:47:22.935Z,4.15
2023-01-30T10:50:21.431Z,2.72
2023-01-30T10:53:10.564Z,3.40
2023-01-30T10:55:46.939Z,2.50
2023-01-30T10:58:29.077Z,3.05
2023-01-30T11:01:08.819Z,3.33
2023-01-30T11:03:45.028Z,3.10
2023-01-30T11:06:26.631Z,2.30
2023-01-30T11:08:55.829Z,2.88
2023-01-30T11:11:45.235Z,3.50
2023-01-30T11:14:12.588Z,3.83
2023-01-30T11:16:53.528Z,4.07
2023-01-30T11:19:34.657Z,4.05
2023-01-30T11:22:04.471Z,3.22
2023-01-30T11:24:39.261Z,3.33
2023-01-30T11:27:19.701Z,2.15
2023-01-30T11:29:47.804Z,2.40
2023-01-30T11:32:29.110Z,3.30
2023-01-30T11:35:08.066Z,3.63
2023-01-30T11:37:41.108Z,2.53
2023-01-30T11:40:19.697Z,2.35
2023-01-30T11:43:11.611Z,2.67
2023-01-30T11:45:42.571Z,3.05
2023-01-30T11:48:33.281Z,3.35
2023-01-30T11:51:09.433Z,2.42
2023-01-30T11:53:47.579Z,2.70
2023-01-30T11:56:32.687Z,3.15
2023-01-30T11:59:04.299Z,3.30
2023-01-30T12:01:35.172Z,3.50
2023-01-30T12:04:06.086Z,3.30
2023-01-30T12:06:37.594Z,2.78
2023-01-30T12:09:05.477Z,2.78
2023-01-30T12:11:42.093Z,2.85
2023-01-30T12:14:34.729Z,2.85
2023-01-30T12:17:35.421Z,3.50
2023-01-30T12:20:39.198Z,2.92
2023-01-30T12:23:20.858Z,3.05
2023-01-30T12:26:08.594Z,2.97
2023-01-30T12:29:00.963Z,2.55
2023-01-30T12:31:35.792Z,2.50
2023-01-30T12:34:04.007Z,1.63
2023-01-30T12:36:47.985Z,2.00
2023-01-30T12:39:53.731Z,1.55
2023-01-30T12:43:02.814Z,1.48
2023-01-30T12:45:59.720Z,1.20
2023-01-30T12:48:44.269Z,1.40
2023-01-30T12:52:01.084Z,1.77
2023-01-30T12:54:49.675Z,1.60
2023-01-30T12:57:56.591Z,2.53
2023-01-30T13:00:29.964Z,2.05
2023-01-30T13:03:38.197Z,1.73
2023-01-30T13:06:46.683Z,1.95
2023-01-30T13:09:32.087Z,2.50
2023-01-30T13:12:17.008Z,3.92
2023-01-30T13:15:14.104Z,3.10
2023-01-30T13:18:17.900Z,2.78
2023-01-30T13:21:28.077Z,2.90
2023-01-30T13:24:20.671Z,2.97
2023-01-30T13:26:50.343Z,3.78
2023-01-30T13:29:38.287Z,2.90
2023-01-30T13:32:15.185Z,2.20
2023-01-30T13:34:45.432Z,2.88
2023-01-30T13:37:20.285Z,2.10
2023-01-30T13:40:03.825Z,2.83
2023-01-30T13:42:43.315Z,2.85
2023-01-30T13:45:18.640Z,3.72
2023-01-30T13:48:16.457Z,3.30
2023-01-30T13:51:23.485Z,3.10
2023-01-30T13:54:07.228Z,2.33
2023-01-30T13:57:06.612Z,2.90
2023-01-30T13:59:55.504Z,2.83
2023-01-30T14:02:25.917Z,2.90
2023-01-30T14:04:58.229Z,2.67
2023-01-30T14:07:32.077Z,2.83
2023-01-30T14:10:20.573Z,2.20
2023-01-30T14:12:49.374Z,2.92
2023-01-30T14:15:16.210Z,3.28
2023-01-30T14:18:01.680Z,2.42
2023-01-30T14:20:31.616Z,2.00
2023-01-30T14:23:03.452Z,3.30
2023-01-30T14:25:30.134Z,3.38
2023-01-30T14:27:59.937Z,2.47
2023-01-30T14:30:47.551Z,2.42
2023-01-30T14:33:23.398Z,2.83
2023-01-30T14:36:15.806Z,3.17
2023-01-30T14:38:44.428Z,2.67
2023-01-30T14:41:28.581Z,2.13
2023-01-30T14:43:55.728Z,2.33
2023-01-30T14:46:22.477Z,2.53
2023-01-30T14:49:00.759Z,3.35
2023-01-30T14:51:39.631Z,2.60
2023-01-30T14:54:12.946Z,2.33
2023-01-30T14:56:58.626Z,2.90
2023-01-30T14:59:51.825Z,3.53
2023-01-30T15:02:38.528Z,2.47
2023-01-30T15:05:20.214Z,2.40
2023-01-30T15:07:57.733Z,2.60
2023-01-30T15:10:42.460Z,3.05
2023-01-30T15:13:42.989Z,2.53
2023-01-30T15:16:31.237Z,3.50
2023-01-30T15:19:40.895Z,2.55
2023-01-30T15:22:24.773Z,2.88
2023-01-30T15:25:21.270Z,3.28
2023-01-30T15:28:19.075Z,2.95
2023-01-30T15:31:16.238Z,4.90
2023-01-30T15:33:48.809Z,3.20
2023-01-30T15:36:35.013Z,3.08
2023-01-30T15:39:23.803Z,3.40
2023-01-30T15:41:52.628Z,4.18
2023-01-30T15:44:54.774Z,4.18
2023-01-30T15:48:02.313Z,4.00
2023-01-30T15:50:29.224Z,3.92
2023-01-30T15:52:57.954Z,3.70
2023-01-30T15:55:29.695Z,4.38
2023-01-30T15:58:06.779Z,3.58
2023-01-30T16:00:36.916Z,3.95
2023-01-30T16:03:06.919Z,3.65
2023-01-30T16:05:33.689Z,3.58
2023-01-30T16:08:19.254Z,4.63
2023-01-30T16:10:47.512Z,6.10
2023-01-30T16:13:14.381Z,3.70
2023-01-30T16:16:08.285Z,4.80
2023-01-30T16:18:50.575Z,4.90
2023-01-30T16:21:21.622Z,4.53
2023-01-30T16:24:06.936Z,5.60
2023-01-30T16:26:36.101Z,4.57
2023-01-30T16:29:06.944Z,4.30
2023-01-30T16:31:46.647Z,4.90
2023-01-30T16:34:30.515Z,4.32
2023-01-30T16:37:18.063Z,3.47
2023-01-30T16:39:48.472Z,4.07
2023-01-30T16:42:33.341Z,3.80
2023-01-30T16:45:19.533Z,3.10
2023-01-30T16:47:47.188Z,3.10
2023-01-30T16:50:22.861Z,2.92
2023-01-30T16:52:54.814Z,3.22
2023-01-30T16:55:26.931Z,3.13
2023-01-30T16:57:58.297Z,3.17
2023-01-30T17:00:37.156Z,2.72
2023-01-30T17:03:05.999Z,2.63
2023-01-30T17:05:41.226Z,3.17
2023-01-30T17:08:30.783Z,4.07
2023-01-30T17:11:02.663Z,3.50
2023-01-30T17:13:43.162Z,4.10
2023-01-30T17:16:22.107Z,2.70
2023-01-30T17:18:53.890Z,3.80
2023-01-30T17:21:23.577Z,2.88
2023-01-30T17:24:03.913Z,2.78
2023-01-30T17:26:31.957Z,2.70
2023-01-30T17:28:59.464Z,3.40
2023-01-30T17:31:26.995Z,3.28
2023-01-30T17:33:53.863Z,3.13
2023-01-30T17:36:27.013Z,4.18
2023-01-30T17:38:54.334Z,3.65
2023-01-30T17:41:24.418Z,4.85
2023-01-30T17:43:51.296Z,3.90
2023-01-30T17:46:18.248Z,4.22
2023-01-30T17:48:45.500Z,6.47
2023-01-30T17:51:14.857Z,5.60
2023-01-30T17:53:41.868Z,4.35
2023-01-30T17:56:38.605Z,4.07
2023-01-30T17:59:13.602Z,5.68
2023-01-30T18:01:42.513Z,5.13
2023-01-30T18:04:09.669Z,5.40
2023-01-30T18:06:37.986Z,6.28
2023-01-30T18:09:06.175Z,7.35
2023-01-30T18:11:33.153Z,8.07
2023-01-30T18:14:00.113Z,8.43
2023-01-30T18:16:33.241Z,8.70
2023-01-30T18:19:05.535Z,4.85
2023-01-30T18:21:34.783Z,4.40
2023-01-30T18:24:02.047Z,3.95
2023-01-30T18:26:29.995Z,4.13
2023-01-30T18:28:56.913Z,4.75
2023-01-30T18:31:25.190Z,4.85
2023-01-30T18:33:53.244Z,4.60
2023-01-30T18:36:21.401Z,4.60
2023-01-30T18:38:48.779Z,3.75
2023-01-30T18:41:18.752Z,3.40
2023-01-30T18:43:48.443Z,3.08
2023-01-30T18:46:17.382Z,3.22
2023-01-30T18:48:45.391Z,3.35
2023-01-30T18:51:15.826Z,3.05
2023-01-30T18:53:43.732Z,2.67
2023-01-30T18:56:17.351Z,2.95
2023-01-30T18:58:49.697Z,3.00
2023-01-30T19:01:20.734Z,2.85
2023-01-30T19:03:47.629Z,3.20
2023-01-30T19:06:16.372Z,3.40
2023-01-30T19:08:43.137Z,3.85
2023-01-30T19:11:31.829Z,4.00
2023-01-30T19:13:59.326Z,3.45
2023-01-30T19:16:28.728Z,3.63
2023-01-30T19:18:56.139Z,3.10
2023-01-30T19:21:24.626Z,3.10
2023-01-30T19:23:51.807Z,3.92
2023-01-30T19:26:21.370Z,2.92
2023-01-30T19:28:48.344Z,4.70
2023-01-30T19:31:19.626Z,3.42
2023-01-30T19:33:52.705Z,3.63
2023-01-30T19:36:21.897Z,3.75
2023-01-30T19:38:49.707Z,4.10
2023-01-30T19:41:25.980Z,4.32
2023-01-30T19:43:54.605Z,3.90
2023-01-30T19:46:22.044Z,3.83
2023-01-30T19:48:49.604Z,3.50
2023-01-30T19:51:27.805Z,3.65
2023-01-30T19:54:01.152Z,3.90
2023-01-30T19:56:29.395Z,4.47
2023-01-30T19:58:58.746Z,4.45
2023-01-30T20:01:29.712Z,4.65
2023-01-30T20:03:57.447Z,4.35
2023-01-30T20:06:27.896Z,4.80
2023-01-30T20:08:59.724Z,5.00
2023-01-30T20:11:26.572Z,4.10
2023-01-30T20:13:54.071Z,4.95
2023-01-30T20:16:25.239Z,4.93
2023-01-30T20:18:59.018Z,5.32
2023-01-30T20:21:28.922Z,6.13
2023-01-30T20:30:39.117Z,9.68
2023-01-30T20:33:06.711Z,9.70
2023-01-30T20:35:34.737Z,10.98
2023-01-30T20:38:02.398Z,10.10
2023-01-30T20:40:29.151Z,9.45
2023-01-30T20:42:55.981Z,9.43
2023-01-30T20:45:22.728Z,6.32
2023-01-30T20:47:49.470Z,6.72
2023-01-30T20:50:16.661Z,6.13
2023-01-30T20:52:43.682Z,5.25
2023-01-30T20:55:10.478Z,4.32
2023-01-30T20:57:37.394Z,4.32
2023-01-30T21:00:05.433Z,4.93
2023-01-30T21:02:32.202Z,4.50
2023-01-30T21:04:58.989Z,5.15
2023-01-30T21:07:25.766Z,4.53
2023-01-30T21:09:52.518Z,4.80
2023-01-30T21:12:19.921Z,4.75
2023-01-30T21:14:46.713Z,4.03
2023-01-30T21:17:13.486Z,5.13
2023-01-30T21:19:43.087Z,5.13
2023-01-30T21:22:10.896Z,3.22
2023-01-30T21:24:39.469Z,3.40
2023-01-30T21:27:06.309Z,5.25
2023-01-30T21:29:33.083Z,4.82
2023-01-30T21:31:59.968Z,4.05
2023-01-30T21:34:26.862Z,4.90
2023-01-30T21:37:12.245Z,4.35
2023-01-30T21:39:58.069Z,3.58
2023-01-30T21:42:43.110Z,3.78
2023-01-30T21:45:10.018Z,4.07
2023-01-30T21:47:36.981Z,4.32
2023-01-30T21:50:04.101Z,4.65
2023-01-30T21:52:32.951Z,3.85
2023-01-30T21:54:59.759Z,4.60
2023-01-30T21:57:26.542Z,3.30
2023-01-30T21:59:53.303Z,4.47
2023-01-30T22:02:20.080Z,3.67
2023-01-30T22:04:46.847Z,3.85
2023-01-30T22:07:13.624Z,3.85
2023-01-30T22:09:40.371Z,4.40
2023-01-30T22:12:07.155Z,4.15
2023-01-30T22:14:36.339Z,3.20
2023-01-30T22:17:03.270Z,3.78
2023-01-30T22:19:35.079Z,5.40
2023-01-30T22:22:02.546Z,3.35
2023-01-30T22:24:29.369Z,3.55
2023-01-30T22:26:56.131Z,3.97
2023-01-30T22:29:22.899Z,4.10
2023-01-30T22:31:49.710Z,3.67
2023-01-30T22:34:16.577Z,4.10
2023-01-30T22:36:43.332Z,3.88
2023-01-30T22:39:10.119Z,4.10
2023-01-30T22:41:37.143Z,3.40
2023-01-30T22:44:05.584Z,3.08
2023-01-30T22:46:36.328Z,4.10
2023-01-30T22:49:06.080Z,3.03
2023-01-30T22:51:43.570Z,3.20
2023-01-30T22:54:15.930Z,3.20
2023-01-30T22:56:47.289Z,3.15
2023-01-30T22:59:14.651Z,3.38
2023-01-30T23:01:48.027Z,3.55
2023-01-30T23:04:20.972Z,2.70
2023-01-30T23:06:49.272Z,3.28
2023-01-30T23:09:20.032Z,2.90
2023-01-30T23:12:12.413Z,2.83
2023-01-30T23:14:39.437Z,3.35
2023-01-30T23:17:26.527Z,2.55
2023-01-30T23:19:54.640Z,2.10
2023-01-30T23:22:21.433Z,2.22
2023-01-30T23:24:48.742Z,1.75
2023-01-30T23:27:15.717Z,2.20
2023-01-30T23:29:42.601Z,2.13
2023-01-30T23:32:09.462Z,1.55
2023-01-30T23:34:36.571Z,2.10
2023-01-30T23:37:03.399Z,2.17
2023-01-30T23:39:30.169Z,2.80
2023-01-30T23:41:56.945Z,2.42
2023-01-30T23:44:23.751Z,2.58
2023-01-30T23:46:50.518Z,3.05
2023-01-30T23:49:17.322Z,3.10
2023-01-30T23:51:44.937Z,3.33
2023-01-30T23:54:13.520Z,3.45
2023-01-30T23:56:43.265Z,3.40
2023-01-30T23:59:10.862Z,2.95
